createdAt,value
2018-12-20T00:00:01.520Z,1000.78
2018-12-20T00:01:01.548Z,1000.77
2018-12-20T00:02:01.500Z,1000.76
2018-12-20T00:03:01.603Z,1000.74
2018-12-20T00:04:01.502Z,1000.76
2018-12-20T00:05:01.482Z,1000.76
2018-12-20T00:06:01.574Z,1000.78
2018-12-20T00:07:01.566Z,1000.76
2018-12-20T00:08:01.471Z,1000.78
2018-12-20T00:09:01.497Z,1000.77
2018-12-20T00:10:01.561Z,1000.78
2018-12-20T00:11:01.565Z,1000.80
2018-12-20T00:12:01.429Z,1000.76
2018-12-20T00:13:01.428Z,1000.74
2018-12-20T00:14:01.469Z,1000.71
2018-12-20T00:15:01.396Z,1000.79
2018-12-20T00:16:01.389Z,1000.82
2018-12-20T00:17:01.407Z,1000.76
2018-12-20T00:18:01.442Z,1000.81
2018-12-20T00:19:01.469Z,1000.77
2018-12-20T00:20:01.382Z,1000.78
2018-12-20T00:21:01.356Z,1000.80
2018-12-20T00:22:01.369Z,1000.77
2018-12-20T00:23:01.447Z,1000.74
2018-12-20T00:24:01.337Z,1000.72
2018-12-20T00:25:01.354Z,1000.69
2018-12-20T00:26:01.511Z,1000.68
2018-12-20T00:27:01.434Z,1000.68
2018-12-20T00:28:01.312Z,1000.69
2018-12-20T00:29:01.412Z,1000.70
2018-12-20T00:30:01.302Z,1000.73
2018-12-20T00:31:01.330Z,1000.74
2018-12-20T00:32:01.333Z,1000.73
2018-12-20T00:33:01.279Z,1000.71
2018-12-20T00:34:01.284Z,1000.73
2018-12-20T00:35:01.266Z,1000.75
2018-12-20T00:36:01.489Z,1000.73
2018-12-20T00:37:01.251Z,1000.75
2018-12-20T00:38:01.248Z,1000.73
2018-12-20T00:39:01.278Z,1000.73
2018-12-20T00:40:06.427Z,1000.73
2018-12-20T00:41:01.224Z,1000.73
2018-12-20T00:42:01.221Z,1000.77
2018-12-20T00:43:01.213Z,1000.72
2018-12-20T00:44:01.276Z,1000.71
2018-12-20T00:45:01.227Z,1000.72
2018-12-20T00:46:01.196Z,1000.69
2018-12-20T00:47:01.333Z,1000.69
2018-12-20T00:48:01.179Z,1000.71
2018-12-20T00:49:01.201Z,1000.71
2018-12-20T00:50:01.200Z,1000.70
2018-12-20T00:51:01.172Z,1000.70
2018-12-20T00:52:01.176Z,1000.70
2018-12-20T00:53:01.147Z,1000.71
2018-12-20T00:54:01.140Z,1000.69
2018-12-20T00:55:01.229Z,1000.70
2018-12-20T00:56:01.135Z,1000.71
2018-12-20T00:57:01.197Z,1000.69
2018-12-20T00:58:01.132Z,1000.69
2018-12-20T00:59:01.231Z,1000.73
2018-12-20T01:00:01.134Z,1000.69
2018-12-20T01:01:01.093Z,1000.72
2018-12-20T01:02:01.086Z,1000.69
2018-12-20T01:03:01.083Z,1000.71
2018-12-20T01:04:01.074Z,1000.68
2018-12-20T01:05:01.082Z,1000.70
2018-12-20T01:06:01.099Z,1000.70
2018-12-20T01:07:01.171Z,1000.73
2018-12-20T01:08:01.149Z,1000.68
2018-12-20T01:09:01.044Z,1000.73
2018-12-20T01:10:01.089Z,1000.72
2018-12-20T01:11:01.053Z,1000.72
2018-12-20T01:12:01.111Z,1000.68
2018-12-20T01:13:01.080Z,1000.70
2018-12-20T01:14:01.038Z,1000.71
2018-12-20T01:15:01.162Z,1000.71
2018-12-20T01:16:00.995Z,1000.73
2018-12-20T01:17:01.030Z,1000.67
2018-12-20T01:18:00.980Z,1000.72
2018-12-20T01:19:01.002Z,1000.65
2018-12-20T01:20:01.081Z,1000.68
2018-12-20T01:21:00.961Z,1000.66
2018-12-20T01:22:00.981Z,1000.70
2018-12-20T01:23:01.041Z,1000.67
2018-12-20T01:24:00.940Z,1000.71
2018-12-20T01:25:00.936Z,1000.70
2018-12-20T01:26:00.929Z,1000.71
2018-12-20T01:27:00.922Z,1000.73
2018-12-20T01:28:01.022Z,1000.74
2018-12-20T01:29:01.143Z,1000.77
2018-12-20T01:30:01.052Z,1000.76
2018-12-20T01:31:01.038Z,1000.75
2018-12-20T01:32:01.118Z,1000.76
2018-12-20T01:33:00.897Z,1000.76
2018-12-20T01:34:00.875Z,1000.74
2018-12-20T01:35:00.868Z,1000.77
2018-12-20T01:36:00.880Z,1000.77
2018-12-20T01:37:00.856Z,1000.75
2018-12-20T01:38:00.875Z,1000.73
2018-12-20T01:39:00.841Z,1000.78
2018-12-20T01:40:00.842Z,1000.77
2018-12-20T01:41:00.967Z,1000.81
2018-12-20T01:42:00.989Z,1000.76
2018-12-20T01:43:00.983Z,1000.74
2018-12-20T01:44:00.833Z,1000.79
2018-12-20T01:45:00.880Z,1000.77
2018-12-20T01:46:00.974Z,1000.76
2018-12-20T01:47:00.888Z,1000.75
2018-12-20T01:48:00.783Z,1000.74
2018-12-20T01:49:00.858Z,1000.75
2018-12-20T01:50:00.768Z,1000.73
2018-12-20T01:51:00.768Z,1000.77
2018-12-20T01:52:00.793Z,1000.75
2018-12-20T01:53:00.942Z,1000.78
2018-12-20T01:54:00.764Z,1000.74
2018-12-20T01:55:00.972Z,1000.75
2018-12-20T01:56:00.744Z,1000.79
2018-12-20T01:57:00.723Z,1000.76
2018-12-20T01:58:00.717Z,1000.75
2018-12-20T01:59:00.713Z,1000.74
2018-12-20T02:00:00.704Z,1000.79
2018-12-20T02:01:00.696Z,1000.77
2018-12-20T02:02:00.689Z,1000.75
2018-12-20T02:03:00.765Z,1000.78
2018-12-20T02:04:00.814Z,1000.78
2018-12-20T02:05:00.759Z,1000.74
2018-12-20T02:06:00.663Z,1000.75
2018-12-20T02:07:00.676Z,1000.73
2018-12-20T02:08:00.768Z,1000.73
2018-12-20T02:09:00.712Z,1000.76
2018-12-20T02:10:00.802Z,1000.71
2018-12-20T02:11:00.729Z,1000.71
2018-12-20T02:12:00.635Z,1000.73
2018-12-20T02:13:00.618Z,1000.71
2018-12-20T02:14:00.611Z,1000.72
2018-12-20T02:15:01.742Z,1000.66
2018-12-20T02:16:00.598Z,1000.64
2018-12-20T02:17:00.599Z,1000.63
2018-12-20T02:18:00.585Z,1000.69
2018-12-20T02:19:00.766Z,1000.65
2018-12-20T02:20:00.617Z,1000.62
2018-12-20T02:21:00.726Z,1000.62
2018-12-20T02:22:00.638Z,1000.59
2018-12-20T02:23:00.553Z,1000.61
2018-12-20T02:24:00.563Z,1000.62
2018-12-20T02:25:00.539Z,1000.64
2018-12-20T02:26:00.537Z,1000.62
2018-12-20T02:27:00.531Z,1000.64
2018-12-20T02:28:00.526Z,1000.65
2018-12-20T02:29:00.672Z,1000.62
2018-12-20T02:30:00.523Z,1000.59
2018-12-20T02:31:00.504Z,1000.63
2018-12-20T02:32:00.498Z,1000.60
2018-12-20T02:33:00.643Z,1000.57
2018-12-20T02:34:00.484Z,1000.56
2018-12-20T02:35:00.547Z,1000.58
2018-12-20T02:36:00.469Z,1000.56
2018-12-20T02:37:00.641Z,1000.54
2018-12-20T02:38:00.645Z,1000.53
2018-12-20T02:39:00.489Z,1000.50
2018-12-20T02:40:00.542Z,1000.49
2018-12-20T02:41:00.577Z,1000.51
2018-12-20T02:42:00.779Z,1000.51
2018-12-20T02:43:00.554Z,1000.47
2018-12-20T02:44:00.517Z,1000.51
2018-12-20T02:45:00.414Z,1000.48
2018-12-20T02:46:00.409Z,1000.50
2018-12-20T02:47:00.561Z,1000.46
2018-12-20T02:48:00.552Z,1000.45
2018-12-20T02:49:00.505Z,1000.44
2018-12-20T02:50:00.568Z,1000.46
2018-12-20T02:51:00.376Z,1000.44
2018-12-20T02:52:00.608Z,1000.42
2018-12-20T02:53:00.487Z,1000.41
2018-12-20T02:54:00.494Z,1000.41
2018-12-20T02:55:00.499Z,1000.41
2018-12-20T02:56:00.486Z,1000.38
2018-12-20T02:57:00.607Z,1000.39
2018-12-20T02:58:00.331Z,1000.36
2018-12-20T02:59:00.423Z,1000.37
2018-12-20T03:00:00.317Z,1000.37
2018-12-20T03:01:00.493Z,1000.40
2018-12-20T03:02:00.629Z,1000.38
2018-12-20T03:03:00.300Z,1000.37
2018-12-20T03:04:00.299Z,1000.41
2018-12-20T03:05:00.388Z,1000.37
2018-12-20T03:06:00.279Z,1000.38
2018-12-20T03:07:00.273Z,1000.38
2018-12-20T03:08:00.303Z,1000.38
2018-12-20T03:09:00.419Z,1000.33
2018-12-20T03:10:00.253Z,1000.35
2018-12-20T03:11:00.326Z,1000.34
2018-12-20T03:12:00.240Z,1000.33
2018-12-20T03:13:00.297Z,1000.36
2018-12-20T03:14:00.288Z,1000.30
2018-12-20T03:15:00.475Z,1000.29
2018-12-20T03:16:00.282Z,1000.29
2018-12-20T03:17:00.262Z,1000.31
2018-12-20T03:18:00.213Z,1000.27
2018-12-20T03:19:00.199Z,1000.32
2018-12-20T03:20:00.216Z,1000.32
2018-12-20T03:21:00.191Z,1000.30
2018-12-20T03:22:00.479Z,1000.31
2018-12-20T03:23:00.330Z,1000.33
2018-12-20T03:24:00.220Z,1000.30
2018-12-20T03:25:00.226Z,1000.34
2018-12-20T03:26:00.185Z,1000.33
2018-12-20T03:27:00.144Z,1000.34
2018-12-20T03:28:00.528Z,1000.33
2018-12-20T03:29:00.208Z,1000.34
2018-12-20T03:30:00.280Z,1000.30
2018-12-20T03:31:00.205Z,1000.35
2018-12-20T03:32:00.175Z,1000.33
2018-12-20T03:33:00.412Z,1000.31
2018-12-20T03:34:00.162Z,1000.30
2018-12-20T03:35:00.092Z,1000.26
2018-12-20T03:36:00.404Z,1000.26
2018-12-20T03:37:00.231Z,1000.24
2018-12-20T03:38:00.219Z,1000.23
2018-12-20T03:39:00.209Z,1000.25
2018-12-20T03:40:00.212Z,1000.24
2018-12-20T03:41:00.176Z,1000.28
2018-12-20T03:42:00.046Z,1000.24
2018-12-20T03:43:00.043Z,1000.22
2018-12-20T03:44:00.035Z,1000.27
2018-12-20T03:45:00.116Z,1000.24
2018-12-20T03:46:00.157Z,1000.27
2018-12-20T03:47:00.070Z,1000.24
2018-12-20T03:48:00.104Z,1000.22
2018-12-20T03:49:00.030Z,1000.23
2018-12-20T03:49:59.994Z,1000.25
2018-12-20T03:51:00.088Z,1000.21
2018-12-20T03:51:59.982Z,1000.19
2018-12-20T03:52:59.977Z,1000.20
2018-12-20T03:54:00.009Z,1000.18
2018-12-20T03:55:00.049Z,1000.17
2018-12-20T03:55:59.987Z,1000.19
2018-12-20T03:56:59.954Z,1000.18
2018-12-20T03:58:00.107Z,1000.18
2018-12-20T03:59:00.079Z,1000.16
2018-12-20T03:59:59.929Z,1000.15
2018-12-20T04:01:00.010Z,1000.23
2018-12-20T04:02:00.026Z,1000.19
2018-12-20T04:03:00.115Z,1000.22
2018-12-20T04:03:59.949Z,1000.20
2018-12-20T04:04:59.966Z,1000.18
2018-12-20T04:05:59.956Z,1000.20
2018-12-20T04:07:00.010Z,1000.24
2018-12-20T04:08:00.026Z,1000.19
2018-12-20T04:08:59.876Z,1000.23
2018-12-20T04:10:00.157Z,1000.22
2018-12-20T04:10:59.881Z,1000.20
2018-12-20T04:11:59.863Z,1000.19
2018-12-20T04:12:59.890Z,1000.18
2018-12-20T04:13:59.843Z,1000.20
2018-12-20T04:14:59.838Z,1000.18
2018-12-20T04:15:59.859Z,1000.19
2018-12-20T04:17:00.030Z,1000.22
2018-12-20T04:17:59.921Z,1000.20
2018-12-20T04:18:59.831Z,1000.21
2018-12-20T04:19:59.804Z,1000.19
2018-12-20T04:21:00.078Z,1000.18
2018-12-20T04:21:59.953Z,1000.18
2018-12-20T04:22:59.788Z,1000.17
2018-12-20T04:23:59.916Z,1000.12
2018-12-20T04:25:00.075Z,1000.13
2018-12-20T04:25:59.938Z,1000.14
2018-12-20T04:26:59.763Z,1000.11
2018-12-20T04:27:59.754Z,1000.15
2018-12-20T04:28:59.951Z,1000.10
2018-12-20T04:29:59.744Z,1000.15
2018-12-20T04:30:59.929Z,1000.16
2018-12-20T04:31:59.729Z,1000.14
2018-12-20T04:32:59.852Z,1000.14
2018-12-20T04:34:00.007Z,1000.12
2018-12-20T04:34:59.714Z,1000.13
2018-12-20T04:35:59.943Z,1000.13
2018-12-20T04:36:59.699Z,1000.16
2018-12-20T04:37:59.691Z,1000.14
2018-12-20T04:38:59.732Z,1000.10
2018-12-20T04:39:59.678Z,1000.10
2018-12-20T04:41:00.003Z,1000.11
2018-12-20T04:41:59.682Z,1000.09
2018-12-20T04:42:59.778Z,1000.12
2018-12-20T04:43:59.805Z,1000.13
2018-12-20T04:44:59.647Z,1000.14
2018-12-20T04:45:59.646Z,1000.12
2018-12-20T04:46:59.896Z,1000.11
2018-12-20T04:47:59.850Z,1000.11
2018-12-20T04:48:59.621Z,1000.13
2018-12-20T04:49:59.617Z,1000.14
2018-12-20T04:50:59.963Z,1000.12
2018-12-20T04:51:59.640Z,1000.11
2018-12-20T04:52:59.613Z,1000.13
2018-12-20T04:53:59.595Z,1000.15
2018-12-20T04:54:59.721Z,1000.18
2018-12-20T04:55:59.799Z,1000.22
2018-12-20T04:56:59.725Z,1000.21
2018-12-20T04:57:59.769Z,1000.24
2018-12-20T04:58:59.564Z,1000.23
2018-12-20T04:59:59.571Z,1000.21
2018-12-20T05:00:59.582Z,1000.23
2018-12-20T05:01:59.540Z,1000.21
2018-12-20T05:02:59.557Z,1000.23
2018-12-20T05:03:59.526Z,1000.18
2018-12-20T05:04:59.610Z,1000.21
2018-12-20T05:05:59.513Z,1000.21
2018-12-20T05:06:59.745Z,1000.16
2018-12-20T05:07:59.501Z,1000.19
2018-12-20T05:08:59.507Z,1000.16
2018-12-20T05:09:59.533Z,1000.16
2018-12-20T05:10:59.484Z,1000.17
2018-12-20T05:11:59.500Z,1000.19
2018-12-20T05:12:59.513Z,1000.22
2018-12-20T05:13:59.622Z,1000.18
2018-12-20T05:14:59.596Z,1000.19
2018-12-20T05:15:59.519Z,1000.19
2018-12-20T05:16:59.565Z,1000.17
2018-12-20T05:17:59.439Z,1000.17
2018-12-20T05:18:59.704Z,1000.18
2018-12-20T05:19:59.453Z,1000.20
2018-12-20T05:20:59.454Z,1000.20
2018-12-20T05:21:59.414Z,1000.20
2018-12-20T05:22:59.412Z,1000.21
2018-12-20T05:23:59.440Z,1000.21
2018-12-20T05:24:59.396Z,1000.26
2018-12-20T05:25:59.391Z,1000.27
2018-12-20T05:26:59.382Z,1000.23
2018-12-20T05:27:59.382Z,1000.24
2018-12-20T05:28:59.391Z,1000.27
2018-12-20T05:29:59.416Z,1000.22
2018-12-20T05:30:59.360Z,1000.26
2018-12-20T05:31:59.494Z,1000.27
2018-12-20T05:32:59.380Z,1000.30
2018-12-20T05:33:59.519Z,1000.30
2018-12-20T05:34:59.337Z,1000.28
2018-12-20T05:35:59.326Z,1000.30
2018-12-20T05:36:59.322Z,1000.28
2018-12-20T05:37:59.435Z,1000.30
2018-12-20T05:38:59.548Z,1000.28
2018-12-20T05:39:59.441Z,1000.32
2018-12-20T05:40:59.356Z,1000.33
2018-12-20T05:41:59.526Z,1000.32
2018-12-20T05:42:59.286Z,1000.31
2018-12-20T05:43:59.307Z,1000.33
2018-12-20T05:44:59.509Z,1000.32
2018-12-20T05:46:04.508Z,1000.33
2018-12-20T05:46:59.296Z,1000.36
2018-12-20T05:47:59.361Z,1000.34
2018-12-20T05:48:59.553Z,1000.33
2018-12-20T05:49:59.323Z,1000.30
2018-12-20T05:50:59.411Z,1000.33
2018-12-20T05:51:59.227Z,1000.36
2018-12-20T05:52:59.220Z,1000.33
2018-12-20T05:53:59.226Z,1000.36
2018-12-20T05:54:59.392Z,1000.40
2018-12-20T05:55:59.393Z,1000.37
2018-12-20T05:56:59.223Z,1000.38
2018-12-20T05:57:59.189Z,1000.36
2018-12-20T05:58:59.185Z,1000.37
2018-12-20T05:59:59.215Z,1000.37
2018-12-20T06:00:59.333Z,1000.36
2018-12-20T06:01:59.200Z,1000.37
2018-12-20T06:02:59.405Z,1000.39
2018-12-20T06:03:59.153Z,1000.42
2018-12-20T06:04:59.467Z,1000.43
2018-12-20T06:05:59.455Z,1000.41
2018-12-20T06:06:59.281Z,1000.51
2018-12-20T06:07:59.171Z,1000.50
2018-12-20T06:08:59.127Z,1000.48
2018-12-20T06:09:59.116Z,1000.47
2018-12-20T06:10:59.211Z,1000.53
2018-12-20T06:11:59.103Z,1000.52
2018-12-20T06:12:59.138Z,1000.51
2018-12-20T06:13:59.222Z,1000.52
2018-12-20T06:14:59.315Z,1000.47
2018-12-20T06:15:59.235Z,1000.52
2018-12-20T06:16:59.074Z,1000.50
2018-12-20T06:17:59.067Z,1000.53
2018-12-20T06:18:59.255Z,1000.51
2018-12-20T06:19:59.110Z,1000.53
2018-12-20T06:20:59.205Z,1000.52
2018-12-20T06:21:59.042Z,1000.51
2018-12-20T06:22:59.037Z,1000.53
2018-12-20T06:23:59.029Z,1000.51
2018-12-20T06:24:59.024Z,1000.48
2018-12-20T06:25:59.019Z,1000.51
2018-12-20T06:26:59.012Z,1000.47
2018-12-20T06:27:59.006Z,1000.48
2018-12-20T06:28:59.000Z,1000.47
2018-12-20T06:29:58.995Z,1000.49
2018-12-20T06:30:58.988Z,1000.50
2018-12-20T06:31:58.981Z,1000.47
2018-12-20T06:32:58.976Z,1000.47
2018-12-20T06:33:58.969Z,1000.47
2018-12-20T06:34:58.964Z,1000.52
2018-12-20T06:35:58.961Z,1000.46
2018-12-20T06:36:58.952Z,1000.48
2018-12-20T06:37:58.945Z,1000.49
2018-12-20T06:38:58.940Z,1000.48
2018-12-20T06:39:58.932Z,1000.52
2018-12-20T06:40:58.932Z,1000.51
2018-12-20T06:41:58.920Z,1000.50
2018-12-20T06:42:58.914Z,1000.48
2018-12-20T06:44:06.968Z,1000.49
2018-12-20T06:44:58.902Z,1000.53
2018-12-20T06:45:58.897Z,1000.51
2018-12-20T06:46:58.890Z,1000.52
2018-12-20T06:47:58.883Z,1000.50
2018-12-20T06:48:58.877Z,1000.49
2018-12-20T06:49:58.871Z,1000.51
2018-12-20T06:50:58.867Z,1000.45
2018-12-20T06:51:58.859Z,1000.49
2018-12-20T06:52:58.860Z,1000.51
2018-12-20T06:53:58.852Z,1000.54
2018-12-20T06:54:58.843Z,1000.49
2018-12-20T06:55:58.835Z,1000.51
2018-12-20T06:56:58.830Z,1000.50
2018-12-20T06:57:58.825Z,1000.52
2018-12-20T06:58:58.819Z,1000.58
2018-12-20T06:59:58.811Z,1000.54
2018-12-20T07:00:58.809Z,1000.56
2018-12-20T07:01:58.800Z,1000.56
2018-12-20T07:02:58.794Z,1000.55
2018-12-20T07:03:58.790Z,1000.56
2018-12-20T07:04:58.782Z,1000.55
2018-12-20T07:05:58.774Z,1000.58
2018-12-20T07:06:58.773Z,1000.55
2018-12-20T07:07:58.764Z,1000.53
2018-12-20T07:08:58.755Z,1000.54
2018-12-20T07:09:58.751Z,1000.54
2018-12-20T07:10:58.744Z,1000.50
2018-12-20T07:11:58.738Z,1000.53
2018-12-20T07:12:58.733Z,1000.54
2018-12-20T07:13:58.728Z,1000.55
2018-12-20T07:14:58.722Z,1000.56
2018-12-20T07:15:58.713Z,1000.56
2018-12-20T07:16:58.709Z,1000.55
2018-12-20T07:17:58.703Z,1000.56
2018-12-20T07:18:58.696Z,1000.58
2018-12-20T07:19:58.689Z,1000.56
2018-12-20T07:20:58.685Z,1000.56
2018-12-20T07:21:58.680Z,1000.60
2018-12-20T07:22:58.673Z,1000.59
2018-12-20T07:23:58.665Z,1000.61
2018-12-20T07:24:58.660Z,1000.58
2018-12-20T07:25:58.653Z,1000.59
2018-12-20T07:26:58.649Z,1000.62
2018-12-20T07:27:58.641Z,1000.59
2018-12-20T07:28:58.634Z,1000.60
2018-12-20T07:29:58.628Z,1000.62
2018-12-20T07:30:58.623Z,1000.59
2018-12-20T07:31:58.616Z,1000.61
2018-12-20T07:32:58.610Z,1000.58
2018-12-20T07:33:58.606Z,1000.62
2018-12-20T07:34:58.601Z,1000.61
2018-12-20T07:35:58.591Z,1000.62
2018-12-20T07:36:58.586Z,1000.63
2018-12-20T07:37:58.582Z,1000.62
2018-12-20T07:38:58.576Z,1000.67
2018-12-20T07:39:58.569Z,1000.66
2018-12-20T07:40:58.563Z,1000.62
2018-12-20T07:41:58.556Z,1000.67
2018-12-20T07:42:58.553Z,1000.64
2018-12-20T07:43:58.544Z,1000.66
2018-12-20T07:44:58.539Z,1000.64
2018-12-20T07:45:58.533Z,1000.64
2018-12-20T07:46:58.526Z,1000.65
2018-12-20T07:47:58.521Z,1000.66
2018-12-20T07:48:58.516Z,1000.64
2018-12-20T07:49:58.509Z,1000.66
2018-12-20T07:50:58.502Z,1000.61
2018-12-20T07:51:58.496Z,1000.61
2018-12-20T07:52:58.490Z,1000.62
2018-12-20T07:53:58.485Z,1000.63
2018-12-20T07:54:58.476Z,1000.62
2018-12-20T07:55:58.473Z,1000.62
2018-12-20T07:56:58.467Z,1000.63
2018-12-20T07:57:58.459Z,1000.63
2018-12-20T07:58:58.453Z,1000.67
2018-12-20T07:59:58.445Z,1000.66
2018-12-20T08:00:58.440Z,1000.69
2018-12-20T08:01:58.433Z,1000.69
2018-12-20T08:02:58.427Z,1000.72
2018-12-20T08:03:58.421Z,1000.67
2018-12-20T08:04:58.416Z,1000.72
2018-12-20T08:05:58.410Z,1000.71
2018-12-20T08:06:58.403Z,1000.75
2018-12-20T08:07:58.396Z,1000.78
2018-12-20T08:08:58.393Z,1000.76
2018-12-20T08:09:58.387Z,1000.80
2018-12-20T08:10:58.381Z,1000.81
2018-12-20T08:11:58.372Z,1000.81
2018-12-20T08:12:58.368Z,1000.79
2018-12-20T08:13:58.362Z,1000.84
2018-12-20T08:14:58.356Z,1000.86
2018-12-20T08:15:58.349Z,1000.80
2018-12-20T08:16:58.344Z,1000.82
2018-12-20T08:17:58.336Z,1000.85
2018-12-20T08:18:58.331Z,1000.82
2018-12-20T08:19:58.329Z,1000.79
2018-12-20T08:20:58.318Z,1000.81
2018-12-20T08:21:58.315Z,1000.80
2018-12-20T08:22:58.306Z,1000.80
2018-12-20T08:23:58.301Z,1000.78
2018-12-20T08:24:58.294Z,1000.82
2018-12-20T08:25:58.291Z,1000.77
2018-12-20T08:26:58.282Z,1000.83
2018-12-20T08:27:58.277Z,1000.84
2018-12-20T08:28:58.271Z,1000.83
2018-12-20T08:29:58.265Z,1000.84
2018-12-20T08:30:58.259Z,1000.82
2018-12-20T08:31:58.252Z,1000.84
2018-12-20T08:32:58.250Z,1000.84
2018-12-20T08:33:58.239Z,1000.88
2018-12-20T08:34:58.236Z,1000.90
2018-12-20T08:35:58.229Z,1000.88
2018-12-20T08:36:58.222Z,1000.95
2018-12-20T08:37:58.218Z,1000.90
2018-12-20T08:38:58.212Z,1000.93
2018-12-20T08:39:58.204Z,1000.95
2018-12-20T08:40:58.198Z,1000.96
2018-12-20T08:41:58.192Z,1000.97
2018-12-20T08:42:58.186Z,1000.98
2018-12-20T08:43:58.181Z,1000.95
2018-12-20T08:44:58.175Z,1001.00
2018-12-20T08:45:58.168Z,1000.96
2018-12-20T08:46:58.164Z,1000.95
2018-12-20T08:47:58.156Z,1000.95
2018-12-20T08:48:58.151Z,1000.97
2018-12-20T08:49:58.180Z,1000.96
2018-12-20T08:50:58.138Z,1000.98
2018-12-20T08:51:58.131Z,1001.00
2018-12-20T08:52:58.125Z,1001.01
2018-12-20T08:53:58.120Z,1001.00
2018-12-20T08:54:58.116Z,1000.99
2018-12-20T08:55:58.109Z,1000.98
2018-12-20T08:56:58.101Z,1001.02
2018-12-20T08:57:58.098Z,1001.02
2018-12-20T08:58:58.094Z,1001.03
2018-12-20T08:59:58.085Z,1001.02
2018-12-20T09:00:58.077Z,1001.03
2018-12-20T09:01:58.072Z,1001.05
2018-12-20T09:02:58.070Z,1001.04
2018-12-20T09:03:58.060Z,1001.04
2018-12-20T09:04:58.053Z,1001.01
2018-12-20T09:05:58.049Z,1001.05
2018-12-20T09:06:58.044Z,1001.07
2018-12-20T09:07:58.035Z,1001.01
2018-12-20T09:08:58.029Z,1001.06
2018-12-20T09:09:58.023Z,1001.06
2018-12-20T09:10:58.018Z,1001.07
2018-12-20T09:11:58.011Z,1001.07
2018-12-20T09:12:58.006Z,1001.08
2018-12-20T09:13:58.000Z,1001.09
2018-12-20T09:14:57.997Z,1001.11
2018-12-20T09:15:57.989Z,1001.10
2018-12-20T09:17:02.903Z,1001.11
2018-12-20T09:17:57.978Z,1001.10
2018-12-20T09:18:57.970Z,1001.10
2018-12-20T09:19:57.963Z,1001.14
2018-12-20T09:20:57.959Z,1001.14
2018-12-20T09:21:57.953Z,1001.14
2018-12-20T09:22:57.946Z,1001.15
2018-12-20T09:23:57.940Z,1001.12
2018-12-20T09:24:57.934Z,1001.11
2018-12-20T09:25:57.929Z,1001.17
2018-12-20T09:26:57.922Z,1001.17
2018-12-20T09:27:57.915Z,1001.20
2018-12-20T09:28:57.911Z,1001.18
2018-12-20T09:29:57.905Z,1001.19
2018-12-20T09:30:57.899Z,1001.15
2018-12-20T09:31:57.892Z,1001.22
2018-12-20T09:32:57.889Z,1001.20
2018-12-20T09:33:57.880Z,1001.18
2018-12-20T09:34:57.881Z,1001.22
2018-12-20T09:35:57.868Z,1001.23
2018-12-20T09:36:57.865Z,1001.24
2018-12-20T09:37:57.863Z,1001.24
2018-12-20T09:38:57.858Z,1001.17
2018-12-20T09:39:57.846Z,1001.24
2018-12-20T09:40:57.839Z,1001.21
2018-12-20T09:41:57.835Z,1001.19
2018-12-20T09:42:57.832Z,1001.23
2018-12-20T09:43:57.822Z,1001.19
2018-12-20T09:44:57.820Z,1001.19
2018-12-20T09:45:57.812Z,1001.28
2018-12-20T09:46:57.805Z,1001.22
2018-12-20T09:47:57.804Z,1001.21
2018-12-20T09:48:57.794Z,1001.17
2018-12-20T09:49:57.788Z,1001.22
2018-12-20T09:50:57.782Z,1001.22
2018-12-20T09:51:57.777Z,1001.23
2018-12-20T09:52:57.770Z,1001.26
2018-12-20T09:53:57.764Z,1001.23
2018-12-20T09:54:57.760Z,1001.20
2018-12-20T09:55:57.753Z,1001.21
2018-12-20T09:56:57.746Z,1001.21
2018-12-20T09:57:57.742Z,1001.22
2018-12-20T09:58:57.737Z,1001.21
2018-12-20T09:59:57.729Z,1001.19
2018-12-20T10:00:57.726Z,1001.26
2018-12-20T10:01:57.720Z,1001.20
2018-12-20T10:02:57.714Z,1001.17
2018-12-20T10:03:57.708Z,1001.16
2018-12-20T10:04:57.701Z,1001.13
2018-12-20T10:05:57.696Z,1001.11
2018-12-20T10:06:57.692Z,1001.13
2018-12-20T10:07:57.684Z,1001.14
2018-12-20T10:08:57.678Z,1001.17
2018-12-20T10:09:57.674Z,1001.13
2018-12-20T10:10:57.669Z,1001.14
2018-12-20T10:11:57.662Z,1001.16
2018-12-20T10:12:57.657Z,1001.18
2018-12-20T10:13:57.651Z,1001.17
2018-12-20T10:14:57.645Z,1001.16
2018-12-20T10:15:57.641Z,1001.18
2018-12-20T10:16:57.635Z,1001.20
2018-12-20T10:17:57.629Z,1001.16
2018-12-20T10:18:57.624Z,1001.10
2018-12-20T10:19:57.617Z,1001.11
2018-12-20T10:20:57.613Z,1001.10
2018-12-20T10:21:57.611Z,1001.11
2018-12-20T10:22:57.601Z,1001.11
2018-12-20T10:23:57.596Z,1001.11
2018-12-20T10:24:57.589Z,1001.08
2018-12-20T10:25:57.586Z,1001.08
2018-12-20T10:26:57.582Z,1001.08
2018-12-20T10:27:57.573Z,1001.08
2018-12-20T10:28:57.586Z,1001.04
2018-12-20T10:29:57.563Z,1001.06
2018-12-20T10:30:57.559Z,1001.12
2018-12-20T10:31:57.557Z,1001.11
2018-12-20T10:32:57.549Z,1001.07
2018-12-20T10:33:57.543Z,1001.05
2018-12-20T10:34:57.537Z,1001.09
2018-12-20T10:35:57.531Z,1001.00
2018-12-20T10:36:57.526Z,1000.99
2018-12-20T10:37:57.520Z,1001.00
2018-12-20T10:38:57.518Z,1001.01
2018-12-20T10:39:57.510Z,1001.09
2018-12-20T10:40:57.505Z,1001.00
2018-12-20T10:41:57.501Z,1001.08
2018-12-20T10:42:57.497Z,1001.04
2018-12-20T10:43:57.487Z,1001.05
2018-12-20T10:44:57.483Z,1001.04
2018-12-20T10:45:57.479Z,1001.05
2018-12-20T10:46:57.473Z,1001.02
2018-12-20T10:47:57.467Z,1001.04
2018-12-20T10:48:57.462Z,1000.97
2018-12-20T10:49:57.458Z,1000.97
2018-12-20T10:50:57.453Z,1000.98
2018-12-20T10:51:57.446Z,1001.03
2018-12-20T10:52:57.443Z,1001.01
2018-12-20T10:53:57.489Z,1000.99
2018-12-20T10:54:57.437Z,1001.01
2018-12-20T10:55:57.425Z,1001.00
2018-12-20T10:56:57.418Z,1001.00
2018-12-20T10:57:57.413Z,1000.99
2018-12-20T10:58:57.409Z,1001.01
2018-12-20T10:59:57.404Z,1001.04
2018-12-20T11:00:57.398Z,1001.00
2018-12-20T11:01:57.394Z,1000.91
2018-12-20T11:02:57.388Z,1000.97
2018-12-20T11:03:57.381Z,1000.97
2018-12-20T11:04:57.377Z,1000.98
2018-12-20T11:05:57.371Z,1000.97
2018-12-20T11:06:57.367Z,1000.92
2018-12-20T11:07:57.362Z,1000.90
2018-12-20T11:08:57.414Z,1000.92
2018-12-20T11:09:57.350Z,1000.91
2018-12-20T11:10:57.345Z,1000.89
2018-12-20T11:11:57.340Z,1000.84
2018-12-20T11:12:57.337Z,1000.83
2018-12-20T11:13:57.327Z,1000.86
2018-12-20T11:14:57.322Z,1000.84
2018-12-20T11:15:57.315Z,1000.80
2018-12-20T11:16:57.315Z,1000.80
2018-12-20T11:17:57.305Z,1000.78
2018-12-20T11:18:57.302Z,1000.78
2018-12-20T11:19:57.294Z,1000.75
2018-12-20T11:20:57.291Z,1000.77
2018-12-20T11:21:57.283Z,1000.72
2018-12-20T11:22:57.281Z,1000.74
2018-12-20T11:23:57.274Z,1000.79
2018-12-20T11:24:57.268Z,1000.85
2018-12-20T11:25:57.263Z,1000.79
2018-12-20T11:26:57.643Z,1000.77
2018-12-20T11:27:57.252Z,1000.79
2018-12-20T11:28:57.248Z,1000.71
2018-12-20T11:29:57.241Z,1000.64
2018-12-20T11:30:57.240Z,1000.74
2018-12-20T11:31:57.231Z,1000.76
2018-12-20T11:32:57.225Z,1000.75
2018-12-20T11:33:57.221Z,1000.76
2018-12-20T11:34:57.216Z,1000.74
2018-12-20T11:35:57.208Z,1000.77
2018-12-20T11:36:57.204Z,1000.73
2018-12-20T11:37:57.198Z,1000.74
2018-12-20T11:38:57.196Z,1000.78
2018-12-20T11:39:59.702Z,1000.77
2018-12-20T11:40:57.183Z,1000.73
2018-12-20T11:41:57.177Z,1000.74
2018-12-20T11:42:57.174Z,1000.76
2018-12-20T11:43:57.166Z,1000.75
2018-12-20T11:44:57.160Z,1000.76
2018-12-20T11:45:57.157Z,1000.72
2018-12-20T11:46:57.150Z,1000.74
2018-12-20T11:47:57.145Z,1000.71
2018-12-20T11:48:57.140Z,1000.71
2018-12-20T11:49:57.134Z,1000.71
2018-12-20T11:50:57.130Z,1000.75
2018-12-20T11:51:57.122Z,1000.72
2018-12-20T11:52:57.119Z,1000.76
2018-12-20T11:53:57.114Z,1000.69
2018-12-20T11:54:57.109Z,1000.76
2018-12-20T11:55:57.104Z,1000.69
2018-12-20T11:56:57.097Z,1000.73
2018-12-20T11:57:57.092Z,1000.70
2018-12-20T11:58:57.086Z,1000.71
2018-12-20T11:59:57.081Z,1000.69
2018-12-20T12:00:57.076Z,1000.66
2018-12-20T12:01:57.070Z,1000.69
2018-12-20T12:02:57.064Z,1000.71
2018-12-20T12:03:57.573Z,1000.73
2018-12-20T12:04:57.053Z,1000.69